sensor_id;sensor_type;location;lat;lon;timestamp;pressure;altitude;pressure_sealevel;temperature;humidity
55044;BME280;54902;50.420;18.854;2022-11-15T00:00:09;101691.93;;;6.10;83.56
55044;BME280;54902;50.420;18.854;2022-11-15T00:00:40;101692.79;;;6.10;83.55
55044;BME280;54902;50.420;18.854;2022-11-15T00:01:16;101690.08;;;6.10;83.55
55044;BME280;54902;50.420;18.854;2022-11-15T00:01:48;101690.00;;;6.12;83.54
55044;BME280;54902;50.420;18.854;2022-11-15T00:02:19;101682.84;;;6.11;83.54
55044;BME280;54902;50.420;18.854;2022-11-15T00:02:54;101688.27;;;6.11;83.56
55044;BME280;54902;50.420;18.854;2022-11-15T00:03:27;101678.29;;;6.11;83.54
55044;BME280;54902;50.420;18.854;2022-11-15T00:03:58;101684.58;;;6.12;83.55
55044;BME280;54902;50.420;18.854;2022-11-15T00:04:29;101693.70;;;6.11;83.54
55044;BME280;54902;50.420;18.854;2022-11-15T00:04:59;101677.55;;;6.08;83.54
55044;BME280;54902;50.420;18.854;2022-11-15T00:05:34;101685.56;;;6.11;83.56
55044;BME280;54902;50.420;18.854;2022-11-15T00:06:06;101684.58;;;6.12;83.55
55044;BME280;54902;50.420;18.854;2022-11-15T00:06:37;101681.85;;;6.12;83.57
55044;BME280;54902;50.420;18.854;2022-11-15T00:07:08;101682.84;;;6.11;83.54
55044;BME280;54902;50.420;18.854;2022-11-15T00:07:39;101680.05;;;6.12;83.56
55044;BME280;54902;50.420;18.854;2022-11-15T00:08:10;101680.91;;;6.13;83.56
55044;BME280;54902;50.420;18.854;2022-11-15T00:08:41;101677.34;;;6.12;83.56
55044;BME280;54902;50.420;18.854;2022-11-15T00:09:12;101680.99;;;6.11;83.54
55044;BME280;54902;50.420;18.854;2022-11-15T00:09:42;101679.06;;;6.13;83.56
55044;BME280;54902;50.420;18.854;2022-11-15T00:10:14;101682.68;;;6.14;83.55
55044;BME280;54902;50.420;18.854;2022-11-15T00:11:28;101676.35;;;6.13;83.55
55044;BME280;54902;50.420;18.854;2022-11-15T00:11:59;101675.48;;;6.13;83.56
55044;BME280;54902;50.420;18.854;2022-11-15T00:12:30;101677.26;;;6.14;83.57
55044;BME280;54902;50.420;18.854;2022-11-15T00:13:08;101676.35;;;6.13;83.55
55044;BME280;54902;50.420;18.854;2022-11-15T00:13:40;101677.26;;;6.14;83.56
55044;BME280;54902;50.420;18.854;2022-11-15T00:14:11;101676.35;;;6.13;83.55
55044;BME280;54902;50.420;18.854;2022-11-15T00:14:42;101677.26;;;6.14;83.57
55044;BME280;54902;50.420;18.854;2022-11-15T00:15:13;101679.02;;;6.15;83.57
55044;BME280;54902;50.420;18.854;2022-11-15T00:15:44;101679.02;;;6.15;83.56
55044;BME280;54902;50.420;18.854;2022-11-15T00:16:15;101674.54;;;6.14;83.58
55044;BME280;54902;50.420;18.854;2022-11-15T00:16:46;101674.54;;;6.14;83.56
55044;BME280;54902;50.420;18.854;2022-11-15T00:17:17;101671.82;;;6.14;83.56
55044;BME280;54902;50.420;18.854;2022-11-15T00:17:50;101672.70;;;6.14;83.57
55044;BME280;54902;50.420;18.854;2022-11-15T00:18:21;101675.41;;;6.14;83.57
55044;BME280;54902;50.420;18.854;2022-11-15T00:18:52;101671.82;;;6.14;83.58
55044;BME280;54902;50.420;18.854;2022-11-15T00:19:23;101670.88;;;6.15;83.58
55044;BME280;54902;50.420;18.854;2022-11-15T00:19:54;101673.59;;;6.15;83.57
55044;BME280;54902;50.420;18.854;2022-11-15T00:20:25;101671.82;;;6.14;83.57
55044;BME280;54902;50.420;18.854;2022-11-15T00:21:19;101669.98;;;6.14;83.56
55044;BME280;54902;50.420;18.854;2022-11-15T00:21:40;101677.26;;;6.14;83.56
55044;BME280;54902;50.420;18.854;2022-11-15T00:22:13;101677.26;;;6.14;83.55
55044;BME280;54902;50.420;18.854;2022-11-15T00:22:44;101656.88;;;6.05;83.53
55044;BME280;54902;50.420;18.854;2022-11-15T00:23:15;101671.82;;;6.14;83.54
55044;BME280;54902;50.420;18.854;2022-11-15T00:23:47;101672.77;;;6.13;83.54
55044;BME280;54902;50.420;18.854;2022-11-15T00:24:18;101674.54;;;6.14;83.53
55044;BME280;54902;50.420;18.854;2022-11-15T00:24:48;101670.92;;;6.13;83.53
55044;BME280;54902;50.420;18.854;2022-11-15T00:25:19;101668.30;;;6.12;83.53
55044;BME280;54902;50.420;18.854;2022-11-15T00:25:57;101667.35;;;6.13;83.55
55044;BME280;54902;50.420;18.854;2022-11-15T00:26:28;101664.63;;;6.13;83.54
55044;BME280;54902;50.420;18.854;2022-11-15T00:26:59;101662.02;;;6.11;83.52
55044;BME280;54902;50.420;18.854;2022-11-15T00:27:30;101663.77;;;6.12;83.52
55044;BME280;54902;50.420;18.854;2022-11-15T00:28:01;101668.30;;;6.12;83.51
55044;BME280;54902;50.420;18.854;2022-11-15T00:28:32;101661.14;;;6.11;83.51
55044;BME280;54902;50.420;18.854;2022-11-15T00:29:03;101667.43;;;6.11;83.52
55044;BME280;54902;50.420;18.854;2022-11-15T00:29:34;101668.30;;;6.12;83.53
55044;BME280;54902;50.420;18.854;2022-11-15T00:30:05;101660.16;;;6.12;83.53
55044;BME280;54902;50.420;18.854;2022-11-15T00:30:36;101659.30;;;6.11;83.51
55044;BME280;54902;50.420;18.854;2022-11-15T00:31:11;101655.72;;;6.11;83.50
55044;BME280;54902;50.420;18.854;2022-11-15T00:31:42;101651.16;;;6.11;83.51
55044;BME280;54902;50.420;18.854;2022-11-15T00:32:13;101658.43;;;6.11;83.51
55044;BME280;54902;50.420;18.854;2022-11-15T00:32:44;101648.52;;;6.10;83.52
55044;BME280;54902;50.420;18.854;2022-11-15T00:33:15;101655.72;;;6.11;83.50
55044;BME280;54902;50.420;18.854;2022-11-15T00:33:46;101656.67;;;6.10;83.50
55044;BME280;54902;50.420;18.854;2022-11-15T00:34:17;101656.67;;;6.10;83.50
55044;BME280;54902;50.420;18.854;2022-11-15T00:34:47;101650.30;;;6.11;83.51
55044;BME280;54902;50.420;18.854;2022-11-15T00:35:19;101660.25;;;6.10;83.50
55044;BME280;54902;50.420;18.854;2022-11-15T00:35:50;101652.20;;;6.09;83.49
55044;BME280;54902;50.420;18.854;2022-11-15T00:36:20;101653.95;;;6.10;83.48
55044;BME280;54902;50.420;18.854;2022-11-15T00:36:51;101652.20;;;6.09;83.50
55044;BME280;54902;50.420;18.854;2022-11-15T00:37:22;101651.24;;;6.10;83.48
55044;BME280;54902;50.420;18.854;2022-11-15T00:37:53;101646.77;;;6.09;83.48
55044;BME280;54902;50.420;18.854;2022-11-15T00:38:24;101642.29;;;6.08;83.48
55044;BME280;54902;50.420;18.854;2022-11-15T00:38:55;101645.01;;;6.08;83.48
55044;BME280;54902;50.420;18.854;2022-11-15T00:39:26;101647.72;;;6.08;83.48
55044;BME280;54902;50.420;18.854;2022-11-15T00:39:57;101647.72;;;6.08;83.49
55044;BME280;54902;50.420;18.854;2022-11-15T00:40:28;101638.71;;;6.07;83.47
55044;BME280;54902;50.420;18.854;2022-11-15T00:40:59;101642.29;;;6.08;83.48
55044;BME280;54902;50.420;18.854;2022-11-15T00:41:31;101645.01;;;6.08;83.48
55044;BME280;54902;50.420;18.854;2022-11-15T00:42:02;101632.39;;;6.07;83.47
55044;BME280;54902;50.420;18.854;2022-11-15T00:42:33;101643.24;;;6.07;83.49
55044;BME280;54902;50.420;18.854;2022-11-15T00:43:03;101637.81;;;6.07;83.46
55044;BME280;54902;50.420;18.854;2022-11-15T00:43:35;101638.71;;;6.07;83.49
55044;BME280;54902;50.420;18.854;2022-11-15T00:44:06;101639.58;;;6.08;83.48
55044;BME280;54902;50.420;18.854;2022-11-15T00:44:37;101638.71;;;6.07;83.47
55044;BME280;54902;50.420;18.854;2022-11-15T00:45:09;101641.42;;;6.07;83.49
55044;BME280;54902;50.420;18.854;2022-11-15T00:45:40;101636.09;;;6.06;83.48
55044;BME280;54902;50.420;18.854;2022-11-15T00:46:11;101637.81;;;6.07;83.46
55044;BME280;54902;50.420;18.854;2022-11-15T00:46:42;101632.39;;;6.07;83.47
55044;BME280;54902;50.420;18.854;2022-11-15T00:47:13;101626.10;;;6.06;83.46
55044;BME280;54902;50.420;18.854;2022-11-15T00:47:45;101626.97;;;6.07;83.47
55044;BME280;54902;50.420;18.854;2022-11-15T00:48:16;101630.66;;;6.06;83.47
55044;BME280;54902;50.420;18.854;2022-11-15T00:48:47;101633.30;;;6.07;83.49
55044;BME280;54902;50.420;18.854;2022-11-15T00:49:18;101617.97;;;6.06;83.46
55044;BME280;54902;50.420;18.854;2022-11-15T00:49:49;101616.12;;;6.07;83.47
55044;BME280;54902;50.420;18.854;2022-11-15T00:50:20;101626.97;;;6.07;83.49
55044;BME280;54902;50.420;18.854;2022-11-15T00:50:51;101632.39;;;6.07;83.47
55044;BME280;54902;50.420;18.854;2022-11-15T00:51:22;101626.10;;;6.06;83.46
55044;BME280;54902;50.420;18.854;2022-11-15T00:51:53;101617.02;;;6.07;83.45
55044;BME280;54902;50.420;18.854;2022-11-15T00:52:24;101624.25;;;6.07;83.46
55044;BME280;54902;50.420;18.854;2022-11-15T00:52:55;101629.68;;;6.07;83.47
55044;BME280;54902;50.420;18.854;2022-11-15T00:53:26;101626.97;;;6.07;83.46
55044;BME280;54902;50.420;18.854;2022-11-15T00:53:57;101619.81;;;6.06;83.46
55044;BME280;54902;50.420;18.854;2022-11-15T00:54:28;101617.88;;;6.08;83.48
55044;BME280;54902;50.420;18.854;2022-11-15T00:54:59;101619.81;;;6.06;83.46
55044;BME280;54902;50.420;18.854;2022-11-15T00:55:30;101615.16;;;6.08;83.48
55044;BME280;54902;50.420;18.854;2022-11-15T00:56:01;101611.59;;;6.07;83.47
55044;BME280;54902;50.420;18.854;2022-11-15T00:56:32;101616.12;;;6.07;83.49
55044;BME280;54902;50.420;18.854;2022-11-15T00:57:03;101617.02;;;6.07;83.49
55044;BME280;54902;50.420;18.854;2022-11-15T00:57:35;101617.02;;;6.07;83.47
55044;BME280;54902;50.420;18.854;2022-11-15T00:58:06;101617.97;;;6.06;83.46
55044;BME280;54902;50.420;18.854;2022-11-15T00:58:37;101618.83;;;6.07;83.46
55044;BME280;54902;50.420;18.854;2022-11-15T00:59:08;101616.12;;;6.07;83.46
55044;BME280;54902;50.420;18.854;2022-11-15T00:59:39;101617.02;;;6.07;83.46
55044;BME280;54902;50.420;18.854;2022-11-15T01:00:11;101615.16;;;6.08;83.48
55044;BME280;54902;50.420;18.854;2022-11-15T01:00:42;101605.27;;;6.07;83.46
55044;BME280;54902;50.420;18.854;2022-11-15T01:01:14;101613.41;;;6.07;83.47
55044;BME280;54902;50.420;18.854;2022-11-15T01:01:45;101611.59;;;6.07;83.47
55044;BME280;54902;50.420;18.854;2022-11-15T01:02:16;101608.89;;;6.07;83.47
55044;BME280;54902;50.420;18.854;2022-11-15T01:02:47;101612.45;;;6.08;83.50
55044;BME280;54902;50.420;18.854;2022-11-15T01:03:18;101612.45;;;6.08;83.47
55044;BME280;54902;50.420;18.854;2022-11-15T01:03:49;101605.27;;;6.07;83.46
55044;BME280;54902;50.420;18.854;2022-11-15T01:04:20;101608.97;;;6.06;83.46
55044;BME280;54902;50.420;18.854;2022-11-15T01:04:51;101610.70;;;6.07;83.47
55044;BME280;54902;50.420;18.854;2022-11-15T01:05:22;101603.45;;;6.07;83.47
55044;BME280;54902;50.420;18.854;2022-11-15T01:05:53;101598.03;;;6.07;83.46
55044;BME280;54902;50.420;18.854;2022-11-15T01:06:24;101600.74;;;6.07;83.45
55044;BME280;54902;50.420;18.854;2022-11-15T01:06:55;101598.12;;;6.06;83.45
55044;BME280;54902;50.420;18.854;2022-11-15T01:07:26;101599.84;;;6.07;83.43
55044;BME280;54902;50.420;18.854;2022-11-15T01:07:57;101603.45;;;6.07;83.44
55044;BME280;54902;50.420;18.854;2022-11-15T01:08:28;101598.98;;;6.06;83.44
55044;BME280;54902;50.420;18.854;2022-11-15T01:08:59;101610.70;;;6.07;83.43
55044;BME280;54902;50.420;18.854;2022-11-15T01:09:30;101604.40;;;6.06;83.43
55044;BME280;54902;50.420;18.854;2022-11-15T01:10:01;101597.22;;;6.05;83.44
55044;BME280;54902;50.420;18.854;2022-11-15T01:10:32;101594.51;;;6.05;83.44
55044;BME280;54902;50.420;18.854;2022-11-15T01:11:05;101610.70;;;6.07;83.42
55044;BME280;54902;50.420;18.854;2022-11-15T01:11:37;101608.97;;;6.06;83.42
55044;BME280;54902;50.420;18.854;2022-11-15T01:12:08;101592.69;;;6.06;83.42
55044;BME280;54902;50.420;18.854;2022-11-15T01:12:39;101590.93;;;6.05;83.41
55044;BME280;54902;50.420;18.854;2022-11-15T01:13:10;101602.64;;;6.05;83.42
55044;BME280;54902;50.420;18.854;2022-11-15T01:13:41;101600.84;;;6.06;83.41
55044;BME280;54902;50.420;18.854;2022-11-15T01:14:12;101593.64;;;6.05;83.41
55044;BME280;54902;50.420;18.854;2022-11-15T01:14:43;101594.59;;;6.04;83.41
55044;BME280;54902;50.420;18.854;2022-11-15T01:15:14;101593.73;;;6.03;83.39
55044;BME280;54902;50.420;18.854;2022-11-15T01:15:45;101602.72;;;6.04;83.39
55044;BME280;54902;50.420;18.854;2022-11-15T01:16:17;101598.26;;;6.03;83.30
55044;BME280;54902;50.420;18.854;2022-11-15T01:16:49;101595.55;;;6.03;83.38
55044;BME280;54902;50.420;18.854;2022-11-15T01:17:20;101595.55;;;6.03;83.38
55044;BME280;54902;50.420;18.854;2022-11-15T01:17:51;101596.44;;;6.03;83.38
55044;BME280;54902;50.420;18.854;2022-11-15T01:18:22;101592.83;;;6.03;83.37
55044;BME280;54902;50.420;18.854;2022-11-15T01:18:53;101589.25;;;6.02;83.37
55044;BME280;54902;50.420;18.854;2022-11-15T01:19:24;101592.91;;;6.01;83.34
55044;BME280;54902;50.420;18.854;2022-11-15T01:19:55;101595.63;;;6.01;83.33
55044;BME280;54902;50.420;18.854;2022-11-15T01:20:26;101592.05;;;6.01;83.32
55044;BME280;54902;50.420;18.854;2022-11-15T01:20:57;101596.61;;;6.00;83.32
55044;BME280;54902;50.420;18.854;2022-11-15T01:21:28;101593.90;;;6.00;83.32
55044;BME280;54902;50.420;18.854;2022-11-15T01:21:59;101585.77;;;6.00;83.30
55044;BME280;54902;50.420;18.854;2022-11-15T01:22:30;101591.23;;;5.99;83.30
55044;BME280;54902;50.420;18.854;2022-11-15T01:23:01;101595.70;;;6.00;83.31
55044;BME280;54902;50.420;18.854;2022-11-15T01:23:32;101584.95;;;5.98;83.29
55044;BME280;54902;50.420;18.854;2022-11-15T01:24:04;101589.51;;;5.98;83.28
55044;BME280;54902;50.420;18.854;2022-11-15T01:24:35;101593.08;;;5.98;83.29
55044;BME280;54902;50.420;18.854;2022-11-15T01:25:06;101594.93;;;5.98;83.28
55044;BME280;54902;50.420;18.854;2022-11-15T01:25:37;101587.75;;;5.97;83.28
55044;BME280;54902;50.420;18.854;2022-11-15T01:26:11;101582.32;;;5.97;83.28
55044;BME280;54902;50.420;18.854;2022-11-15T01:26:42;101590.46;;;5.97;83.26
55044;BME280;54902;50.420;18.854;2022-11-15T01:27:13;101589.55;;;5.96;83.27
55044;BME280;54902;50.420;18.854;2022-11-15T01:27:44;101585.98;;;5.96;83.27
55044;BME280;54902;50.420;18.854;2022-11-15T01:28:15;101594.13;;;5.96;83.27
55044;BME280;54902;50.420;18.854;2022-11-15T01:28:46;101591.41;;;5.96;83.28
55044;BME280;54902;50.420;18.854;2022-11-15T01:29:17;101589.64;;;5.95;83.27
55044;BME280;54902;50.420;18.854;2022-11-15T01:29:48;101589.64;;;5.95;83.27
55044;BME280;54902;50.420;18.854;2022-11-15T01:30:19;101590.54;;;5.95;83.29
55044;BME280;54902;50.420;18.854;2022-11-15T01:30:50;101578.80;;;5.95;83.28
55044;BME280;54902;50.420;18.854;2022-11-15T01:31:21;101586.07;;;5.94;83.29
55044;BME280;54902;50.420;18.854;2022-11-15T01:31:53;101586.07;;;5.94;83.30
55044;BME280;54902;50.420;18.854;2022-11-15T01:32:24;101586.07;;;5.94;83.28
55044;BME280;54902;50.420;18.854;2022-11-15T01:32:55;101585.20;;;5.94;83.31
55044;BME280;54902;50.420;18.854;2022-11-15T01:33:27;101578.88;;;5.93;83.29
55044;BME280;54902;50.420;18.854;2022-11-15T01:33:58;101578.88;;;5.93;83.28
55044;BME280;54902;50.420;18.854;2022-11-15T01:34:29;101585.20;;;5.94;83.30
55044;BME280;54902;50.420;18.854;2022-11-15T01:35:00;101587.91;;;5.94;83.30
55044;BME280;54902;50.420;18.854;2022-11-15T01:35:31;101575.31;;;5.93;83.27
55044;BME280;54902;50.420;18.854;2022-11-15T01:36:07;101577.07;;;5.94;83.27
55044;BME280;54902;50.420;18.854;2022-11-15T01:36:38;101585.25;;;5.92;83.26
55044;BME280;54902;50.420;18.854;2022-11-15T01:37:09;101581.68;;;5.92;83.28
55044;BME280;54902;50.420;18.854;2022-11-15T01:37:40;101578.97;;;5.92;83.26
55044;BME280;54902;50.420;18.854;2022-11-15T01:38:11;101579.83;;;5.92;83.26
55044;BME280;54902;50.420;18.854;2022-11-15T01:38:42;101584.39;;;5.92;83.26
55044;BME280;54902;50.420;18.854;2022-11-15T01:39:13;101579.83;;;5.92;83.27
55044;BME280;54902;50.420;18.854;2022-11-15T01:39:45;101584.39;;;5.92;83.26
55044;BME280;54902;50.420;18.854;2022-11-15T01:40:16;101586.15;;;5.93;83.26
55044;BME280;54902;50.420;18.854;2022-11-15T01:40:48;101584.39;;;5.92;83.27
55044;BME280;54902;50.420;18.854;2022-11-15T01:41:31;101572.68;;;5.91;83.26
55044;BME280;54902;50.420;18.854;2022-11-15T01:41:58;101579.91;;;5.91;83.25
55044;BME280;54902;50.420;18.854;2022-11-15T01:42:29;101582.63;;;5.91;83.27
55044;BME280;54902;50.420;18.854;2022-11-15T01:43:42;101571.78;;;5.91;83.28
55044;BME280;54902;50.420;18.854;2022-11-15T01:44:56;101568.21;;;5.90;83.28
55044;BME280;54902;50.420;18.854;2022-11-15T01:45:27;101571.78;;;5.91;83.25
55044;BME280;54902;50.420;18.854;2022-11-15T01:46:06;101570.91;;;5.90;83.26
55044;BME280;54902;50.420;18.854;2022-11-15T01:46:42;101568.21;;;5.90;83.26
55044;BME280;54902;50.420;18.854;2022-11-15T01:47:24;101567.34;;;5.90;83.24
55044;BME280;54902;50.420;18.854;2022-11-15T01:47:56;101577.30;;;5.89;83.24
55044;BME280;54902;50.420;18.854;2022-11-15T01:48:33;101571.00;;;5.89;83.25
55044;BME280;54902;50.420;18.854;2022-11-15T01:49:59;101568.29;;;5.89;83.23
55044;BME280;54902;50.420;18.854;2022-11-15T01:50:32;101566.53;;;5.88;83.21
55044;BME280;54902;50.420;18.854;2022-11-15T01:51:09;101561.10;;;5.88;83.21
55044;BME280;54902;50.420;18.854;2022-11-15T01:51:43;101564.76;;;5.87;83.22
55044;BME280;54902;50.420;18.854;2022-11-15T01:52:18;101569.24;;;5.88;83.21
55044;BME280;54902;50.420;18.854;2022-11-15T01:52:49;101564.76;;;5.87;83.18
55044;BME280;54902;50.420;18.854;2022-11-15T01:53:23;101570.19;;;5.87;83.20
55044;BME280;54902;50.420;18.854;2022-11-15T01:54:01;101570.19;;;5.87;83.18
55044;BME280;54902;50.420;18.854;2022-11-15T01:54:33;101563.03;;;5.86;83.17
55044;BME280;54902;50.420;18.854;2022-11-15T01:55:11;101569.41;;;5.85;83.18
55044;BME280;54902;50.420;18.854;2022-11-15T01:55:44;101563.98;;;5.85;83.17
55044;BME280;54902;50.420;18.854;2022-11-15T01:56:19;101566.70;;;5.85;83.18
55044;BME280;54902;50.420;18.854;2022-11-15T01:56:58;101563.98;;;5.85;83.17
55044;BME280;54902;50.420;18.854;2022-11-15T01:57:30;101564.08;;;5.83;83.17
55044;BME280;54902;50.420;18.854;2022-11-15T01:58:04;101564.08;;;5.83;83.17
55044;BME280;54902;50.420;18.854;2022-11-15T01:58:36;101557.75;;;5.83;83.16
55044;BME280;54902;50.420;18.854;2022-11-15T01:59:09;101560.47;;;5.83;83.17
55044;BME280;54902;50.420;18.854;2022-11-15T01:59:43;101562.30;;;5.82;83.16
55044;BME280;54902;50.420;18.854;2022-11-15T02:00:16;101558.69;;;5.82;83.16
55044;BME280;54902;50.420;18.854;2022-11-15T02:00:48;101558.69;;;5.82;83.15
55044;BME280;54902;50.420;18.854;2022-11-15T02:01:21;101558.79;;;5.80;83.19
55044;BME280;54902;50.420;18.854;2022-11-15T02:01:53;101552.33;;;5.83;83.16
55044;BME280;54902;50.420;18.854;2022-11-15T02:02:24;101564.13;;;5.82;83.16
55044;BME280;54902;50.420;18.854;2022-11-15T02:02:55;101559.67;;;5.81;83.17
55044;BME280;54902;50.420;18.854;2022-11-15T02:03:34;101562.40;;;5.81;83.16
55044;BME280;54902;50.420;18.854;2022-11-15T02:04:15;101554.26;;;5.81;83.16
55044;BME280;54902;50.420;18.854;2022-11-15T02:04:47;101549.70;;;5.81;83.16
55044;BME280;54902;50.420;18.854;2022-11-15T02:05:19;101549.79;;;5.80;83.16
55044;BME280;54902;50.420;18.854;2022-11-15T02:05:50;101553.36;;;5.80;83.16
55044;BME280;54902;50.420;18.854;2022-11-15T02:06:22;101556.07;;;5.80;83.16
55044;BME280;54902;50.420;18.854;2022-11-15T02:06:53;101551.55;;;5.81;83.17
55044;BME280;54902;50.420;18.854;2022-11-15T02:07:25;101552.50;;;5.80;83.16
55044;BME280;54902;50.420;18.854;2022-11-15T02:07:56;101545.32;;;5.79;83.15
55044;BME280;54902;50.420;18.854;2022-11-15T02:08:27;101549.79;;;5.80;83.16
55044;BME280;54902;50.420;18.854;2022-11-15T02:09:00;101546.22;;;5.79;83.15
55044;BME280;54902;50.420;18.854;2022-11-15T02:09:31;101542.59;;;5.79;83.15
55044;BME280;54902;50.420;18.854;2022-11-15T02:10:08;101548.03;;;5.79;83.15
55044;BME280;54902;50.420;18.854;2022-11-15T02:10:39;101545.32;;;5.79;83.16
55044;BME280;54902;50.420;18.854;2022-11-15T02:11:10;101545.32;;;5.79;83.16
55044;BME280;54902;50.420;18.854;2022-11-15T02:11:42;101539.02;;;5.78;83.14
55044;BME280;54902;50.420;18.854;2022-11-15T02:12:18;101534.64;;;5.76;83.15
55044;BME280;54902;50.420;18.854;2022-11-15T02:12:50;101526.00;;;5.68;83.14
55044;BME280;54902;50.420;18.854;2022-11-15T02:13:23;101533.69;;;5.77;83.15
55044;BME280;54902;50.420;18.854;2022-11-15T02:13:55;101538.22;;;5.77;83.14
55044;BME280;54902;50.420;18.854;2022-11-15T02:14:28;101539.10;;;5.77;83.15
55044;BME280;54902;50.420;18.854;2022-11-15T02:15:01;101542.69;;;5.78;83.14
55044;BME280;54902;50.420;18.854;2022-11-15T02:15:40;101540.84;;;5.78;83.15
55044;BME280;54902;50.420;18.854;2022-11-15T02:17:52;101530.09;;;5.77;83.13
55044;BME280;54902;50.420;18.854;2022-11-15T02:18:35;101534.64;;;5.76;83.13
55044;BME280;54902;50.420;18.854;2022-11-15T02:21:28;101527.46;;;5.75;83.12
55044;BME280;54902;50.420;18.854;2022-11-15T02:25:20;101541.92;;;5.74;83.12
55044;BME280;54902;50.420;18.854;2022-11-15T02:26:46;101529.35;;;5.73;83.10
55044;BME280;54902;50.420;18.854;2022-11-15T02:29:38;101533.96;;;5.71;83.08
55044;BME280;54902;50.420;18.854;2022-11-15T02:36:00;101526.95;;;5.67;83.01
55044;BME280;54902;50.420;18.854;2022-11-15T02:37:32;101525.18;;;5.66;83.02
55044;BME280;54902;50.420;18.854;2022-11-15T02:38:58;101520.80;;;5.64;82.98
55044;BME280;54902;50.420;18.854;2022-11-15T02:39:40;101524.41;;;5.64;82.98
55044;BME280;54902;50.420;18.854;2022-11-15T02:41:03;101519.94;;;5.63;82.98
55044;BME280;54902;50.420;18.854;2022-11-15T02:41:46;101525.35;;;5.63;82.97
55044;BME280;54902;50.420;18.854;2022-11-15T02:42:26;101526.30;;;5.62;82.98
55044;BME280;54902;50.420;18.854;2022-11-15T02:43:16;101519.16;;;5.61;82.97
55044;BME280;54902;50.420;18.854;2022-11-15T02:44:07;101519.16;;;5.61;82.98
55044;BME280;54902;50.420;18.854;2022-11-15T02:44:45;101519.16;;;5.61;83.00
55044;BME280;54902;50.420;18.854;2022-11-15T02:45:23;101522.81;;;5.60;83.00
55044;BME280;54902;50.420;18.854;2022-11-15T02:47:33;101518.34;;;5.59;82.98
55044;BME280;54902;50.420;18.854;2022-11-15T02:48:09;101521.05;;;5.59;82.96
55044;BME280;54902;50.420;18.854;2022-11-15T02:48:43;101515.63;;;5.59;82.96
55044;BME280;54902;50.420;18.854;2022-11-15T02:49:15;101521.05;;;5.59;82.95
55044;BME280;54902;50.420;18.854;2022-11-15T02:49:50;101513.88;;;5.58;82.96
55044;BME280;54902;50.420;18.854;2022-11-15T02:50:25;101518.34;;;5.59;82.95
55044;BME280;54902;50.420;18.854;2022-11-15T02:50:58;101516.59;;;5.58;82.95
55044;BME280;54902;50.420;18.854;2022-11-15T02:51:29;101512.06;;;5.59;82.96
55044;BME280;54902;50.420;18.854;2022-11-15T02:52:00;101513.88;;;5.58;82.95
55044;BME280;54902;50.420;18.854;2022-11-15T02:52:31;101517.53;;;5.57;82.96
55044;BME280;54902;50.420;18.854;2022-11-15T02:53:03;101509.41;;;5.57;82.93
55044;BME280;54902;50.420;18.854;2022-11-15T02:53:34;101510.29;;;5.58;82.95
55044;BME280;54902;50.420;18.854;2022-11-15T02:54:06;101508.45;;;5.58;82.94
55044;BME280;54902;50.420;18.854;2022-11-15T02:54:38;101506.70;;;5.57;82.95
55044;BME280;54902;50.420;18.854;2022-11-15T02:55:53;101511.24;;;5.57;82.95
55044;BME280;54902;50.420;18.854;2022-11-15T02:56:25;101505.82;;;5.57;82.95
55044;BME280;54902;50.420;18.854;2022-11-15T02:57:02;101501.35;;;5.56;82.94
55044;BME280;54902;50.420;18.854;2022-11-15T02:57:44;101496.91;;;5.55;82.95
55044;BME280;54902;50.420;18.854;2022-11-15T03:00:34;101500.48;;;5.55;82.93
55044;BME280;54902;50.420;18.854;2022-11-15T03:02:01;101499.68;;;5.53;82.93
55044;BME280;54902;50.420;18.854;2022-11-15T03:06:51;101493.48;;;5.51;82.90
55044;BME280;54902;50.420;18.854;2022-11-15T03:07:32;101498.90;;;5.51;82.92
55044;BME280;54902;50.420;18.854;2022-11-15T03:09:02;101493.48;;;5.51;82.89
55044;BME280;54902;50.420;18.854;2022-11-15T03:09:41;101494.43;;;5.50;82.89
55044;BME280;54902;50.420;18.854;2022-11-15T03:10:24;101492.66;;;5.49;82.86
55044;BME280;54902;50.420;18.854;2022-11-15T03:11:45;101495.37;;;5.49;82.85
55044;BME280;54902;50.420;18.854;2022-11-15T03:12:27;101496.35;;;5.48;82.85
55044;BME280;54902;50.420;18.854;2022-11-15T03:13:13;101490.93;;;5.48;82.84
55044;BME280;54902;50.420;18.854;2022-11-15T03:15:12;101486.55;;;5.46;82.83
55044;BME280;54902;50.420;18.854;2022-11-15T03:16:37;101497.39;;;5.46;82.83
55044;BME280;54902;50.420;18.854;2022-11-15T03:17:22;101486.63;;;5.44;82.81
55044;BME280;54902;50.420;18.854;2022-11-15T03:18:02;101481.22;;;5.44;82.82
55044;BME280;54902;50.420;18.854;2022-11-15T03:18:41;101484.78;;;5.45;82.81
55044;BME280;54902;50.420;18.854;2022-11-15T03:19:20;101482.16;;;5.43;82.81
55044;BME280;54902;50.420;18.854;2022-11-15T03:19:56;101484.88;;;5.43;82.81
55044;BME280;54902;50.420;18.854;2022-11-15T03:20:30;101487.57;;;5.43;82.80
55044;BME280;54902;50.420;18.854;2022-11-15T03:21:07;101482.16;;;5.43;82.80
55044;BME280;54902;50.420;18.854;2022-11-15T03:21:40;101479.54;;;5.42;82.79
55044;BME280;54902;50.420;18.854;2022-11-15T03:22:15;101478.64;;;5.41;82.79
55044;BME280;54902;50.420;18.854;2022-11-15T03:22:49;101479.54;;;5.42;82.79
55044;BME280;54902;50.420;18.854;2022-11-15T03:23:22;101475.93;;;5.41;82.79
55044;BME280;54902;50.420;18.854;2022-11-15T03:23:55;101481.34;;;5.41;82.78
55044;BME280;54902;50.420;18.854;2022-11-15T03:24:31;101488.61;;;5.41;82.79
55044;BME280;54902;50.420;18.854;2022-11-15T03:25:07;101478.72;;;5.40;82.78
55044;BME280;54902;50.420;18.854;2022-11-15T03:25:46;101463.92;;;5.30;82.76
55044;BME280;54902;50.420;18.854;2022-11-15T03:26:21;101484.23;;;5.38;82.77
55044;BME280;54902;50.420;18.854;2022-11-15T03:26:55;101478.81;;;5.38;82.76